sensor_id;sensor_type;location;lat;lon;timestamp;temperature;humidity
37412;DHT22;23278;52.110;6.050;2023-03-30T00:02:07;13.60;99.90
37412;DHT22;23278;52.110;6.050;2023-03-30T00:04:32;13.60;99.90
37412;DHT22;23278;52.110;6.050;2023-03-30T00:06:59;13.60;99.90
37412;DHT22;23278;52.110;6.050;2023-03-30T00:09:25;13.50;99.90
37412;DHT22;23278;52.110;6.050;2023-03-30T00:11:55;13.50;99.90
37412;DHT22;23278;52.110;6.050;2023-03-30T00:14:21;13.50;99.90
37412;DHT22;23278;52.110;6.050;2023-03-30T00:16:54;13.60;99.90
37412;DHT22;23278;52.110;6.050;2023-03-30T00:19:21;13.60;99.90
37412;DHT22;23278;52.110;6.050;2023-03-30T00:21:47;13.60;99.90
37412;DHT22;23278;52.110;6.050;2023-03-30T00:24:14;13.60;99.90
37412;DHT22;23278;52.110;6.050;2023-03-30T00:26:40;13.60;99.90
37412;DHT22;23278;52.110;6.050;2023-03-30T00:29:06;13.70;99.90
37412;DHT22;23278;52.110;6.050;2023-03-30T00:31:32;13.70;99.70
37412;DHT22;23278;52.110;6.050;2023-03-30T00:33:58;13.70;99.50
37412;DHT22;23278;52.110;6.050;2023-03-30T00:36:24;13.80;99.40
37412;DHT22;23278;52.110;6.050;2023-03-30T00:38:50;13.90;99.10
37412;DHT22;23278;52.110;6.050;2023-03-30T00:41:17;13.90;98.90
37412;DHT22;23278;52.110;6.050;2023-03-30T00:44:04;13.90;98.80
37412;DHT22;23278;52.110;6.050;2023-03-30T00:46:31;13.90;98.70
37412;DHT22;23278;52.110;6.050;2023-03-30T00:49:07;13.90;98.50
37412;DHT22;23278;52.110;6.050;2023-03-30T00:51:36;14.00;98.20
37412;DHT22;23278;52.110;6.050;2023-03-30T00:54:15;14.00;98.20
37412;DHT22;23278;52.110;6.050;2023-03-30T00:56:42;13.90;98.30
37412;DHT22;23278;52.110;6.050;2023-03-30T00:59:08;13.90;98.30
37412;DHT22;23278;52.110;6.050;2023-03-30T01:01:35;13.80;98.30
37412;DHT22;23278;52.110;6.050;2023-03-30T01:04:04;13.80;98.30
37412;DHT22;23278;52.110;6.050;2023-03-30T01:06:32;13.80;98.20
37412;DHT22;23278;52.110;6.050;2023-03-30T01:08:59;13.80;98.30
37412;DHT22;23278;52.110;6.050;2023-03-30T01:11:25;13.80;98.30
37412;DHT22;23278;52.110;6.050;2023-03-30T01:14:06;13.70;98.20
37412;DHT22;23278;52.110;6.050;2023-03-30T01:16:43;13.70;98.20
37412;DHT22;23278;52.110;6.050;2023-03-30T01:24:49;13.90;98.00
37412;DHT22;23278;52.110;6.050;2023-03-30T01:33:02;13.90;97.90
37412;DHT22;23278;52.110;6.050;2023-03-30T01:41:14;13.90;97.80
37412;DHT22;23278;52.110;6.050;2023-03-30T01:44:01;14.00;97.80
37412;DHT22;23278;52.110;6.050;2023-03-30T01:46:33;14.00;97.70
37412;DHT22;23278;52.110;6.050;2023-03-30T01:49:47;13.90;97.80
37412;DHT22;23278;52.110;6.050;2023-03-30T01:52:07;13.90;97.70
37412;DHT22;23278;52.110;6.050;2023-03-30T01:54:40;14.00;97.70
37412;DHT22;23278;52.110;6.050;2023-03-30T01:57:47;14.00;97.70
37412;DHT22;23278;52.110;6.050;2023-03-30T02:00:17;13.90;97.70
37412;DHT22;23278;52.110;6.050;2023-03-30T02:02:53;14.00;97.60
37412;DHT22;23278;52.110;6.050;2023-03-30T02:05:22;14.00;97.50
37412;DHT22;23278;52.110;6.050;2023-03-30T02:07:52;14.10;97.40
37412;DHT22;23278;52.110;6.050;2023-03-30T02:10:21;14.10;97.40
37412;DHT22;23278;52.110;6.050;2023-03-30T02:12:49;14.10;97.20
37412;DHT22;23278;52.110;6.050;2023-03-30T02:15:18;14.10;97.20
37412;DHT22;23278;52.110;6.050;2023-03-30T02:17:45;14.10;97.20
37412;DHT22;23278;52.110;6.050;2023-03-30T02:20:12;14.00;97.30
37412;DHT22;23278;52.110;6.050;2023-03-30T02:22:43;14.00;97.30
37412;DHT22;23278;52.110;6.050;2023-03-30T02:25:10;14.00;97.40
37412;DHT22;23278;52.110;6.050;2023-03-30T02:27:37;13.90;97.40
37412;DHT22;23278;52.110;6.050;2023-03-30T02:30:07;13.90;97.40
37412;DHT22;23278;52.110;6.050;2023-03-30T02:32:43;13.90;97.30
37412;DHT22;23278;52.110;6.050;2023-03-30T02:35:37;14.00;97.30
37412;DHT22;23278;52.110;6.050;2023-03-30T02:38:38;13.90;97.40
37412;DHT22;23278;52.110;6.050;2023-03-30T02:49:37;13.70;97.50
37412;DHT22;23278;52.110;6.050;2023-03-30T02:58:15;13.30;98.10
37412;DHT22;23278;52.110;6.050;2023-03-30T03:03:52;13.30;98.40
37412;DHT22;23278;52.110;6.050;2023-03-30T03:06:20;13.30;98.50
37412;DHT22;23278;52.110;6.050;2023-03-30T03:08:53;13.30;98.50
37412;DHT22;23278;52.110;6.050;2023-03-30T03:11:23;13.40;98.50
37412;DHT22;23278;52.110;6.050;2023-03-30T03:13:51;13.50;98.50
37412;DHT22;23278;52.110;6.050;2023-03-30T03:16:17;13.60;98.40
37412;DHT22;23278;52.110;6.050;2023-03-30T03:19:01;13.70;98.30
37412;DHT22;23278;52.110;6.050;2023-03-30T03:21:28;13.80;98.20
37412;DHT22;23278;52.110;6.050;2023-03-30T03:23:54;13.80;98.20
37412;DHT22;23278;52.110;6.050;2023-03-30T03:26:21;13.80;98.20
37412;DHT22;23278;52.110;6.050;2023-03-30T03:28:48;13.90;98.20
37412;DHT22;23278;52.110;6.050;2023-03-30T03:31:14;14.00;98.20
37412;DHT22;23278;52.110;6.050;2023-03-30T03:33:40;14.00;98.20
37412;DHT22;23278;52.110;6.050;2023-03-30T03:36:16;14.10;98.20
37412;DHT22;23278;52.110;6.050;2023-03-30T03:38:47;14.10;98.20
37412;DHT22;23278;52.110;6.050;2023-03-30T03:41:14;14.10;98.30
37412;DHT22;23278;52.110;6.050;2023-03-30T03:43:42;14.10;98.40
37412;DHT22;23278;52.110;6.050;2023-03-30T03:46:07;14.10;98.50
37412;DHT22;23278;52.110;6.050;2023-03-30T03:48:34;14.10;98.60
37412;DHT22;23278;52.110;6.050;2023-03-30T03:51:00;14.00;98.80
37412;DHT22;23278;52.110;6.050;2023-03-30T03:53:30;13.90;99.20
37412;DHT22;23278;52.110;6.050;2023-03-30T03:56:00;13.80;99.50
37412;DHT22;23278;52.110;6.050;2023-03-30T03:58:27;13.70;99.70
37412;DHT22;23278;52.110;6.050;2023-03-30T04:01:00;13.70;99.80
37412;DHT22;23278;52.110;6.050;2023-03-30T04:03:27;13.80;99.90
37412;DHT22;23278;52.110;6.050;2023-03-30T04:05:57;13.90;99.90
37412;DHT22;23278;52.110;6.050;2023-03-30T04:08:23;13.90;99.90
37412;DHT22;23278;52.110;6.050;2023-03-30T04:10:50;14.00;99.90
37412;DHT22;23278;52.110;6.050;2023-03-30T04:13:29;13.90;99.90
37412;DHT22;23278;52.110;6.050;2023-03-30T04:16:18;13.90;99.90
37412;DHT22;23278;52.110;6.050;2023-03-30T04:18:44;13.70;99.90
37412;DHT22;23278;52.110;6.050;2023-03-30T04:21:48;13.60;99.90
37412;DHT22;23278;52.110;6.050;2023-03-30T04:24:33;13.60;99.90
37412;DHT22;23278;52.110;6.050;2023-03-30T04:27:26;13.60;99.90
37412;DHT22;23278;52.110;6.050;2023-03-30T04:30:12;13.60;99.90
37412;DHT22;23278;52.110;6.050;2023-03-30T04:33:10;13.60;99.90
37412;DHT22;23278;52.110;6.050;2023-03-30T04:35:50;13.60;99.90
37412;DHT22;23278;52.110;6.050;2023-03-30T04:38:36;13.70;99.90
37412;DHT22;23278;52.110;6.050;2023-03-30T04:41:15;13.80;99.90
37412;DHT22;23278;52.110;6.050;2023-03-30T04:44:08;13.80;99.90
37412;DHT22;23278;52.110;6.050;2023-03-30T04:46:57;13.90;99.90
37412;DHT22;23278;52.110;6.050;2023-03-30T04:49:41;13.90;99.90
37412;DHT22;23278;52.110;6.050;2023-03-30T04:52:39;14.00;99.90
37412;DHT22;23278;52.110;6.050;2023-03-30T04:55:24;14.00;99.90
37412;DHT22;23278;52.110;6.050;2023-03-30T04:58:02;14.00;99.90
37412;DHT22;23278;52.110;6.050;2023-03-30T05:00:49;14.10;99.90
37412;DHT22;23278;52.110;6.050;2023-03-30T05:03:55;14.00;99.90
37412;DHT22;23278;52.110;6.050;2023-03-30T05:06:43;14.00;99.90
37412;DHT22;23278;52.110;6.050;2023-03-30T05:09:29;13.90;99.90
37412;DHT22;23278;52.110;6.050;2023-03-30T05:12:14;14.00;99.90
37412;DHT22;23278;52.110;6.050;2023-03-30T05:15:03;14.00;99.90
37412;DHT22;23278;52.110;6.050;2023-03-30T05:17:42;13.70;99.90
37412;DHT22;23278;52.110;6.050;2023-03-30T05:20:41;13.50;99.90
37412;DHT22;23278;52.110;6.050;2023-03-30T05:23:33;13.30;99.90
37412;DHT22;23278;52.110;6.050;2023-03-30T05:26:18;13.10;99.90
37412;DHT22;23278;52.110;6.050;2023-03-30T05:29:14;12.90;99.90
37412;DHT22;23278;52.110;6.050;2023-03-30T05:32:14;12.70;99.90
37412;DHT22;23278;52.110;6.050;2023-03-30T05:34:50;12.60;99.90
37412;DHT22;23278;52.110;6.050;2023-03-30T05:37:34;12.50;99.90
37412;DHT22;23278;52.110;6.050;2023-03-30T05:40:19;12.50;99.90
37412;DHT22;23278;52.110;6.050;2023-03-30T05:43:08;12.40;99.90
37412;DHT22;23278;52.110;6.050;2023-03-30T05:46:03;12.30;99.90
37412;DHT22;23278;52.110;6.050;2023-03-30T05:48:47;12.30;99.90
37412;DHT22;23278;52.110;6.050;2023-03-30T05:51:31;12.30;99.90
37412;DHT22;23278;52.110;6.050;2023-03-30T05:54:21;12.30;99.90
37412;DHT22;23278;52.110;6.050;2023-03-30T05:56:59;12.30;99.90
37412;DHT22;23278;52.110;6.050;2023-03-30T05:59:31;12.20;99.90
37412;DHT22;23278;52.110;6.050;2023-03-30T06:02:16;12.20;99.90
37412;DHT22;23278;52.110;6.050;2023-03-30T06:04:44;12.10;99.90
37412;DHT22;23278;52.110;6.050;2023-03-30T06:07:10;12.10;99.90
37412;DHT22;23278;52.110;6.050;2023-03-30T06:09:36;12.10;99.90
37412;DHT22;23278;52.110;6.050;2023-03-30T06:12:09;12.20;99.90
37412;DHT22;23278;52.110;6.050;2023-03-30T06:14:40;12.10;99.90
37412;DHT22;23278;52.110;6.050;2023-03-30T06:17:22;12.20;99.90
37412;DHT22;23278;52.110;6.050;2023-03-30T06:19:48;12.20;99.90
37412;DHT22;23278;52.110;6.050;2023-03-30T06:22:14;12.20;99.90
37412;DHT22;23278;52.110;6.050;2023-03-30T06:25:00;12.30;99.90
37412;DHT22;23278;52.110;6.050;2023-03-30T06:27:26;12.40;99.90
37412;DHT22;23278;52.110;6.050;2023-03-30T06:29:56;12.40;99.90
37412;DHT22;23278;52.110;6.050;2023-03-30T06:32:21;12.40;99.90
37412;DHT22;23278;52.110;6.050;2023-03-30T06:34:59;12.40;99.90
37412;DHT22;23278;52.110;6.050;2023-03-30T06:37:27;12.50;99.90
37412;DHT22;23278;52.110;6.050;2023-03-30T06:39:53;12.60;99.90
37412;DHT22;23278;52.110;6.050;2023-03-30T06:42:20;12.70;99.90
37412;DHT22;23278;52.110;6.050;2023-03-30T06:44:58;12.80;99.90
37412;DHT22;23278;52.110;6.050;2023-03-30T06:47:24;12.80;99.90
37412;DHT22;23278;52.110;6.050;2023-03-30T06:49:50;12.90;99.90
37412;DHT22;23278;52.110;6.050;2023-03-30T06:52:36;13.00;99.90
37412;DHT22;23278;52.110;6.050;2023-03-30T06:55:04;13.20;99.90
37412;DHT22;23278;52.110;6.050;2023-03-30T06:57:30;13.40;99.90
37412;DHT22;23278;52.110;6.050;2023-03-30T06:59:57;13.50;99.90
37412;DHT22;23278;52.110;6.050;2023-03-30T07:02:41;13.60;99.90
37412;DHT22;23278;52.110;6.050;2023-03-30T07:05:22;13.70;99.90
37412;DHT22;23278;52.110;6.050;2023-03-30T07:08:07;13.70;99.90
37412;DHT22;23278;52.110;6.050;2023-03-30T07:10:33;13.70;99.90
37412;DHT22;23278;52.110;6.050;2023-03-30T07:13:02;13.70;99.90
37412;DHT22;23278;52.110;6.050;2023-03-30T07:15:30;13.60;99.90
37412;DHT22;23278;52.110;6.050;2023-03-30T07:17:56;13.60;99.90
37412;DHT22;23278;52.110;6.050;2023-03-30T07:20:21;13.70;99.90
37412;DHT22;23278;52.110;6.050;2023-03-30T07:23:08;13.70;99.90
37412;DHT22;23278;52.110;6.050;2023-03-30T07:25:37;13.80;99.90
37412;DHT22;23278;52.110;6.050;2023-03-30T07:28:12;13.80;99.90
37412;DHT22;23278;52.110;6.050;2023-03-30T07:30:39;13.80;99.90
37412;DHT22;23278;52.110;6.050;2023-03-30T07:33:07;13.70;99.90
37412;DHT22;23278;52.110;6.050;2023-03-30T07:35:33;13.60;99.90
37412;DHT22;23278;52.110;6.050;2023-03-30T07:38:03;13.70;99.90
37412;DHT22;23278;52.110;6.050;2023-03-30T07:40:32;13.90;99.90
37412;DHT22;23278;52.110;6.050;2023-03-30T07:42:58;14.20;99.90
37412;DHT22;23278;52.110;6.050;2023-03-30T07:45:24;14.30;99.90
37412;DHT22;23278;52.110;6.050;2023-03-30T07:47:50;14.50;99.90
37412;DHT22;23278;52.110;6.050;2023-03-30T07:50:16;14.70;99.90
37412;DHT22;23278;52.110;6.050;2023-03-30T07:52:43;14.70;99.90
37412;DHT22;23278;52.110;6.050;2023-03-30T07:55:12;14.60;99.90
37412;DHT22;23278;52.110;6.050;2023-03-30T07:57:43;14.60;99.90
37412;DHT22;23278;52.110;6.050;2023-03-30T08:00:10;14.60;99.90
37412;DHT22;23278;52.110;6.050;2023-03-30T08:02:49;14.60;99.90
37412;DHT22;23278;52.110;6.050;2023-03-30T08:05:17;14.60;99.90
37412;DHT22;23278;52.110;6.050;2023-03-30T08:08:02;14.60;99.90
37412;DHT22;23278;52.110;6.050;2023-03-30T08:10:33;14.60;99.80
37412;DHT22;23278;52.110;6.050;2023-03-30T08:12:59;14.50;99.90
37412;DHT22;23278;52.110;6.050;2023-03-30T08:15:26;14.40;99.90
37412;DHT22;23278;52.110;6.050;2023-03-30T08:17:52;14.40;99.90
37412;DHT22;23278;52.110;6.050;2023-03-30T08:20:18;14.40;99.90
37412;DHT22;23278;52.110;6.050;2023-03-30T08:22:44;14.30;99.90
37412;DHT22;23278;52.110;6.050;2023-03-30T08:25:10;14.30;99.50
37412;DHT22;23278;52.110;6.050;2023-03-30T08:27:36;14.50;99.40
37412;DHT22;23278;52.110;6.050;2023-03-30T08:30:03;14.50;99.20
37412;DHT22;23278;52.110;6.050;2023-03-30T08:32:29;14.60;99.10
37412;DHT22;23278;52.110;6.050;2023-03-30T08:34:55;14.70;98.90
37412;DHT22;23278;52.110;6.050;2023-03-30T08:37:21;14.90;98.70
37412;DHT22;23278;52.110;6.050;2023-03-30T08:39:47;15.10;98.00
37412;DHT22;23278;52.110;6.050;2023-03-30T08:42:34;15.20;97.40
37412;DHT22;23278;52.110;6.050;2023-03-30T08:45:07;15.40;96.70
37412;DHT22;23278;52.110;6.050;2023-03-30T08:47:40;15.40;96.50
37412;DHT22;23278;52.110;6.050;2023-03-30T08:50:14;15.50;96.20
37412;DHT22;23278;52.110;6.050;2023-03-30T08:52:41;15.50;96.00
37412;DHT22;23278;52.110;6.050;2023-03-30T08:57:58;15.60;95.30
37412;DHT22;23278;52.110;6.050;2023-03-30T09:00:45;15.50;95.60
37412;DHT22;23278;52.110;6.050;2023-03-30T09:03:22;15.30;96.10
37412;DHT22;23278;52.110;6.050;2023-03-30T09:05:55;15.10;96.30
37412;DHT22;23278;52.110;6.050;2023-03-30T09:08:26;15.00;96.70
37412;DHT22;23278;52.110;6.050;2023-03-30T09:10:58;15.30;96.50
37412;DHT22;23278;52.110;6.050;2023-03-30T09:13:27;15.70;95.70
37412;DHT22;23278;52.110;6.050;2023-03-30T09:16:15;15.70;95.40
37412;DHT22;23278;52.110;6.050;2023-03-30T09:18:45;15.40;95.70
37412;DHT22;23278;52.110;6.050;2023-03-30T09:21:12;14.90;97.50
37412;DHT22;23278;52.110;6.050;2023-03-30T09:23:39;14.40;99.90
37412;DHT22;23278;52.110;6.050;2023-03-30T09:29:25;13.70;99.90
37412;DHT22;23278;52.110;6.050;2023-03-30T09:34:41;13.50;99.90
37412;DHT22;23278;52.110;6.050;2023-03-30T09:37:15;13.60;99.90
37412;DHT22;23278;52.110;6.050;2023-03-30T09:39:47;13.80;99.90
37412;DHT22;23278;52.110;6.050;2023-03-30T09:44:54;14.40;99.90
37412;DHT22;23278;52.110;6.050;2023-03-30T09:47:26;15.30;98.90
37412;DHT22;23278;52.110;6.050;2023-03-30T09:50:06;15.50;97.20
37412;DHT22;23278;52.110;6.050;2023-03-30T09:52:34;15.80;97.00
37412;DHT22;23278;52.110;6.050;2023-03-30T09:57:47;16.50;94.90
37412;DHT22;23278;52.110;6.050;2023-03-30T10:00:31;16.20;94.50
37412;DHT22;23278;52.110;6.050;2023-03-30T10:02:59;15.90;94.30
37412;DHT22;23278;52.110;6.050;2023-03-30T10:05:26;15.70;94.70
37412;DHT22;23278;52.110;6.050;2023-03-30T10:08:00;15.70;94.90
37412;DHT22;23278;52.110;6.050;2023-03-30T10:13:06;15.50;95.10
37412;DHT22;23278;52.110;6.050;2023-03-30T10:15:36;15.40;95.30
37412;DHT22;23278;52.110;6.050;2023-03-30T10:20:47;17.40;91.60
37412;DHT22;23278;52.110;6.050;2023-03-30T10:23:18;17.50;88.70
37412;DHT22;23278;52.110;6.050;2023-03-30T10:25:46;17.50;85.20
37412;DHT22;23278;52.110;6.050;2023-03-30T10:28:30;17.10;85.90
37412;DHT22;23278;52.110;6.050;2023-03-30T10:31:02;16.80;85.80
37412;DHT22;23278;52.110;6.050;2023-03-30T10:33:30;16.70;86.20
37412;DHT22;23278;52.110;6.050;2023-03-30T10:36:02;16.50;86.40
37412;DHT22;23278;52.110;6.050;2023-03-30T10:38:32;16.20;87.80
37412;DHT22;23278;52.110;6.050;2023-03-30T10:41:21;16.00;87.90
37412;DHT22;23278;52.110;6.050;2023-03-30T10:43:48;15.80;87.90
37412;DHT22;23278;52.110;6.050;2023-03-30T10:46:16;15.90;88.00
37412;DHT22;23278;52.110;6.050;2023-03-30T10:48:47;16.00;87.40
37412;DHT22;23278;52.110;6.050;2023-03-30T10:51:36;16.10;86.70
37412;DHT22;23278;52.110;6.050;2023-03-30T10:54:24;17.20;83.00
37412;DHT22;23278;52.110;6.050;2023-03-30T10:56:58;18.10;79.90
37412;DHT22;23278;52.110;6.050;2023-03-30T10:59:43;19.10;75.60
37412;DHT22;23278;52.110;6.050;2023-03-30T11:05:28;18.70;73.10
37412;DHT22;23278;52.110;6.050;2023-03-30T11:08:02;18.20;74.90
37412;DHT22;23278;52.110;6.050;2023-03-30T11:10:36;17.60;76.40
37412;DHT22;23278;52.110;6.050;2023-03-30T11:13:50;17.40;77.40
37412;DHT22;23278;52.110;6.050;2023-03-30T11:16:04;17.40;77.40
37412;DHT22;23278;52.110;6.050;2023-03-30T11:18:40;17.20;78.40
37412;DHT22;23278;52.110;6.050;2023-03-30T11:21:25;17.30;76.90
37412;DHT22;23278;52.110;6.050;2023-03-30T11:24:03;17.20;77.50
37412;DHT22;23278;52.110;6.050;2023-03-30T11:26:41;17.00;78.80
37412;DHT22;23278;52.110;6.050;2023-03-30T11:35:16;17.50;76.60
37412;DHT22;23278;52.110;6.050;2023-03-30T11:38:00;17.70;76.10
37412;DHT22;23278;52.110;6.050;2023-03-30T11:40:41;17.90;75.70
37412;DHT22;23278;52.110;6.050;2023-03-30T11:43:13;18.70;73.40
37412;DHT22;23278;52.110;6.050;2023-03-30T11:48:40;18.30;73.50
37412;DHT22;23278;52.110;6.050;2023-03-30T11:51:36;18.80;72.70
37412;DHT22;23278;52.110;6.050;2023-03-30T11:54:40;18.80;72.00
37412;DHT22;23278;52.110;6.050;2023-03-30T12:00:25;18.80;69.70
37412;DHT22;23278;52.110;6.050;2023-03-30T12:05:49;17.90;72.60
37412;DHT22;23278;52.110;6.050;2023-03-30T12:08:59;17.70;73.50
37412;DHT22;23278;52.110;6.050;2023-03-30T12:16:55;17.50;74.20
37412;DHT22;23278;52.110;6.050;2023-03-30T12:22:50;17.90;72.80
37412;DHT22;23278;52.110;6.050;2023-03-30T12:28:14;17.70;72.20
37412;DHT22;23278;52.110;6.050;2023-03-30T12:31:00;17.60;72.40
37412;DHT22;23278;52.110;6.050;2023-03-30T12:33:49;17.30;73.00
37412;DHT22;23278;52.110;6.050;2023-03-30T12:36:31;17.10;74.20
37412;DHT22;23278;52.110;6.050;2023-03-30T12:39:01;17.40;73.50
37412;DHT22;23278;52.110;6.050;2023-03-30T12:41:28;18.00;72.30
37412;DHT22;23278;52.110;6.050;2023-03-30T12:44:30;18.20;71.10
37412;DHT22;23278;52.110;6.050;2023-03-30T12:56:04;18.20;71.60
37412;DHT22;23278;52.110;6.050;2023-03-30T12:58:55;18.20;72.60
37412;DHT22;23278;52.110;6.050;2023-03-30T13:04:13;19.80;66.30
37412;DHT22;23278;52.110;6.050;2023-03-30T13:07:21;20.60;64.20
37412;DHT22;23278;52.110;6.050;2023-03-30T13:12:58;22.80;55.90
37412;DHT22;23278;52.110;6.050;2023-03-30T13:15:47;21.50;57.40
37412;DHT22;23278;52.110;6.050;2023-03-30T13:26:18;19.20;63.10
37412;DHT22;23278;52.110;6.050;2023-03-30T13:29:09;19.10;64.60
37412;DHT22;23278;52.110;6.050;2023-03-30T13:31:55;18.80;65.10
37412;DHT22;23278;52.110;6.050;2023-03-30T13:34:42;18.60;66.60
37412;DHT22;23278;52.110;6.050;2023-03-30T13:48:27;18.90;65.30
37412;DHT22;23278;52.110;6.050;2023-03-30T13:50:59;18.40;66.80
37412;DHT22;23278;52.110;6.050;2023-03-30T13:53:36;18.00;69.00
37412;DHT22;23278;52.110;6.050;2023-03-30T13:56:12;17.60;73.10
37412;DHT22;23278;52.110;6.050;2023-03-30T13:58:44;17.20;79.50
37412;DHT22;23278;52.110;6.050;2023-03-30T14:01:13;17.00;82.50
37412;DHT22;23278;52.110;6.050;2023-03-30T14:03:42;17.60;82.20
37412;DHT22;23278;52.110;6.050;2023-03-30T14:08:39;19.30;74.00
37412;DHT22;23278;52.110;6.050;2023-03-30T14:11:21;20.00;71.10
37412;DHT22;23278;52.110;6.050;2023-03-30T14:13:50;20.00;69.00
37412;DHT22;23278;52.110;6.050;2023-03-30T14:16:20;19.70;68.80
37412;DHT22;23278;52.110;6.050;2023-03-30T14:18:47;19.90;68.00
37412;DHT22;23278;52.110;6.050;2023-03-30T14:21:19;20.90;66.60
37412;DHT22;23278;52.110;6.050;2023-03-30T14:23:50;21.90;62.80
37412;DHT22;23278;52.110;6.050;2023-03-30T14:26:21;21.90;61.70
37412;DHT22;23278;52.110;6.050;2023-03-30T14:28:47;22.40;60.70
37412;DHT22;23278;52.110;6.050;2023-03-30T14:31:17;23.30;57.20
37412;DHT22;23278;52.110;6.050;2023-03-30T14:33:44;22.60;57.60
37412;DHT22;23278;52.110;6.050;2023-03-30T14:36:13;21.50;59.80
37412;DHT22;23278;52.110;6.050;2023-03-30T14:38:49;20.50;62.20
37412;DHT22;23278;52.110;6.050;2023-03-30T14:41:24;20.40;63.50
37412;DHT22;23278;52.110;6.050;2023-03-30T14:43:57;22.10;58.40
37412;DHT22;23278;52.110;6.050;2023-03-30T14:46:31;22.90;55.00
37412;DHT22;23278;52.110;6.050;2023-03-30T14:48:57;23.60;52.40
37412;DHT22;23278;52.110;6.050;2023-03-30T14:51:38;23.80;50.20
37412;DHT22;23278;52.110;6.050;2023-03-30T14:54:11;24.20;49.80
37412;DHT22;23278;52.110;6.050;2023-03-30T14:56:38;23.60;50.20
37412;DHT22;23278;52.110;6.050;2023-03-30T14:59:05;22.40;52.30
37412;DHT22;23278;52.110;6.050;2023-03-30T15:01:33;21.50;54.40
37412;DHT22;23278;52.110;6.050;2023-03-30T15:04:05;21.00;55.50
37412;DHT22;23278;52.110;6.050;2023-03-30T15:06:32;20.40;57.10
37412;DHT22;23278;52.110;6.050;2023-03-30T15:09:04;20.00;57.80
37412;DHT22;23278;52.110;6.050;2023-03-30T15:11:33;19.90;58.50
37412;DHT22;23278;52.110;6.050;2023-03-30T15:14:06;19.90;58.90
37412;DHT22;23278;52.110;6.050;2023-03-30T15:16:34;19.70;59.50
37412;DHT22;23278;52.110;6.050;2023-03-30T15:19:05;19.30;60.30
37412;DHT22;23278;52.110;6.050;2023-03-30T15:21:35;18.90;61.30
37412;DHT22;23278;52.110;6.050;2023-03-30T15:24:05;18.50;62.30
37412;DHT22;23278;52.110;6.050;2023-03-30T15:26:32;18.30;62.80
37412;DHT22;23278;52.110;6.050;2023-03-30T15:28:59;18.10;63.30
37412;DHT22;23278;52.110;6.050;2023-03-30T15:31:26;17.90;63.80
37412;DHT22;23278;52.110;6.050;2023-03-30T15:33:55;18.10;63.80
37412;DHT22;23278;52.110;6.050;2023-03-30T15:36:25;17.90;64.60
37412;DHT22;23278;52.110;6.050;2023-03-30T15:38:56;17.60;65.60
37412;DHT22;23278;52.110;6.050;2023-03-30T15:41:23;17.40;66.70
37412;DHT22;23278;52.110;6.050;2023-03-30T15:44:14;17.40;67.20
37412;DHT22;23278;52.110;6.050;2023-03-30T15:46:42;17.50;66.80
37412;DHT22;23278;52.110;6.050;2023-03-30T15:49:13;17.30;67.00
37412;DHT22;23278;52.110;6.050;2023-03-30T15:51:45;17.20;67.00
37412;DHT22;23278;52.110;6.050;2023-03-30T15:54:14;17.00;67.90
37412;DHT22;23278;52.110;6.050;2023-03-30T15:59:44;16.60;69.10
37412;DHT22;23278;52.110;6.050;2023-03-30T16:02:17;16.60;69.80
37412;DHT22;23278;52.110;6.050;2023-03-30T16:04:44;16.60;69.80
37412;DHT22;23278;52.110;6.050;2023-03-30T16:07:18;16.60;69.70
37412;DHT22;23278;52.110;6.050;2023-03-30T16:09:45;16.70;69.60
37412;DHT22;23278;52.110;6.050;2023-03-30T16:12:18;16.80;69.60
37412;DHT22;23278;52.110;6.050;2023-03-30T16:14:46;16.90;69.40
37412;DHT22;23278;52.110;6.050;2023-03-30T16:17:13;16.90;69.60
37412;DHT22;23278;52.110;6.050;2023-03-30T16:19:40;16.80;70.00
37412;DHT22;23278;52.110;6.050;2023-03-30T16:22:07;16.80;70.20
37412;DHT22;23278;52.110;6.050;2023-03-30T16:24:33;16.80;70.80
37412;DHT22;23278;52.110;6.050;2023-03-30T16:27:01;16.80;70.30
37412;DHT22;23278;52.110;6.050;2023-03-30T16:29:27;16.70;70.40
37412;DHT22;23278;52.110;6.050;2023-03-30T16:31:53;16.50;70.50
37412;DHT22;23278;52.110;6.050;2023-03-30T16:34:20;16.30;71.10
37412;DHT22;23278;52.110;6.050;2023-03-30T16:36:47;16.20;71.90
37412;DHT22;23278;52.110;6.050;2023-03-30T16:39:22;16.10;72.10
37412;DHT22;23278;52.110;6.050;2023-03-30T16:41:49;16.10;71.80
37412;DHT22;23278;52.110;6.050;2023-03-30T16:44:17;16.00;71.40
37412;DHT22;23278;52.110;6.050;2023-03-30T16:46:44;15.90;71.40
37412;DHT22;23278;52.110;6.050;2023-03-30T16:49:16;15.80;72.30
37412;DHT22;23278;52.110;6.050;2023-03-30T16:51:42;15.70;72.60
37412;DHT22;23278;52.110;6.050;2023-03-30T16:54:08;15.80;72.80
37412;DHT22;23278;52.110;6.050;2023-03-30T16:56:35;15.70;73.30
37412;DHT22;23278;52.110;6.050;2023-03-30T16:59:02;15.60;73.80
37412;DHT22;23278;52.110;6.050;2023-03-30T17:01:28;15.40;74.40
37412;DHT22;23278;52.110;6.050;2023-03-30T17:03:54;15.40;74.80
37412;DHT22;23278;52.110;6.050;2023-03-30T17:06:20;15.20;74.80
37412;DHT22;23278;52.110;6.050;2023-03-30T17:08:48;15.20;75.40
37412;DHT22;23278;52.110;6.050;2023-03-30T17:11:14;15.10;75.60
37412;DHT22;23278;52.110;6.050;2023-03-30T17:13:41;15.00;75.80
37412;DHT22;23278;52.110;6.050;2023-03-30T17:16:11;14.90;76.40
37412;DHT22;23278;52.110;6.050;2023-03-30T17:18:37;14.80;77.20
37412;DHT22;23278;52.110;6.050;2023-03-30T17:21:04;14.70;77.80
37412;DHT22;23278;52.110;6.050;2023-03-30T17:23:30;14.70;78.80
37412;DHT22;23278;52.110;6.050;2023-03-30T17:25:58;14.60;79.60
37412;DHT22;23278;52.110;6.050;2023-03-30T17:28:33;14.50;80.10
37412;DHT22;23278;52.110;6.050;2023-03-30T17:31:01;14.50;80.80
37412;DHT22;23278;52.110;6.050;2023-03-30T17:33:28;14.40;81.40
37412;DHT22;23278;52.110;6.050;2023-03-30T17:35:59;14.40;82.00
37412;DHT22;23278;52.110;6.050;2023-03-30T17:38:26;14.40;82.50
37412;DHT22;23278;52.110;6.050;2023-03-30T17:40:53;14.40;82.70
37412;DHT22;23278;52.110;6.050;2023-03-30T17:43:19;14.40;83.00
37412;DHT22;23278;52.110;6.050;2023-03-30T17:45:45;14.40;83.30
37412;DHT22;23278;52.110;6.050;2023-03-30T17:48:14;14.30;84.00
37412;DHT22;23278;52.110;6.050;2023-03-30T17:50:43;14.30;84.50
37412;DHT22;23278;52.110;6.050;2023-03-30T17:53:11;14.30;85.00
37412;DHT22;23278;52.110;6.050;2023-03-30T17:55:42;14.30;86.20
37412;DHT22;23278;52.110;6.050;2023-03-30T17:58:24;14.20;87.20
37412;DHT22;23278;52.110;6.050;2023-03-30T18:00:52;14.10;87.80
37412;DHT22;23278;52.110;6.050;2023-03-30T18:03:20;14.00;88.40
37412;DHT22;23278;52.110;6.050;2023-03-30T18:05:48;13.90;89.30
37412;DHT22;23278;52.110;6.050;2023-03-30T18:08:19;13.80;90.00
37412;DHT22;23278;52.110;6.050;2023-03-30T18:10:57;13.70;90.50
37412;DHT22;23278;52.110;6.050;2023-03-30T18:13:25;13.70;91.00